Time;durP1;ratioP1;P1;durP2;ratioP2;P2;SDS_P1;SDS_P2;PMS_P1;PMS_P2;Temp;Humidity;BMP_temperature;BMP_pressure;BME280_temperature;BME280_humidity;BME280_pressure;Samples;Min_cycle;Max_cycle;Signal;HPM_P1;HPM_P2
2021/08/14 00:02:10;;;;;;;6.75;2.00;;;22.30;88.80;;;;;;5105679;28;20056;-86
2021/08/14 00:04:36;;;;;;;2.92;2.08;;;22.30;88.90;;;;;;5108007;28;20055;-87
2021/08/14 00:07:02;;;;;;;4.55;2.72;;;22.30;89.00;;;;;;5103325;28;20458;-87
2021/08/14 00:09:27;;;;;;;4.32;2.47;;;22.30;88.80;;;;;;5109650;28;20339;-86
2021/08/14 00:11:53;;;;;;;4.18;2.22;;;22.30;88.50;;;;;;5114163;28;20428;-86
2021/08/14 00:14:18;;;;;;;2.95;2.25;;;22.30;88.50;;;;;;5108949;28;20043;-86
2021/08/14 00:16:44;;;;;;;3.22;2.25;;;22.20;88.30;;;;;;5104369;28;20345;-87
2021/08/14 00:19:09;;;;;;;5.43;2.67;;;22.20;88.30;;;;;;5107396;28;20133;-86
2021/08/14 00:21:35;;;;;;;5.10;2.63;;;22.20;87.80;;;;;;5107330;28;20038;-86
2021/08/14 00:24:00;;;;;;;3.83;2.70;;;22.10;88.10;;;;;;5107551;28;20032;-86
2021/08/14 00:26:26;;;;;;;3.60;2.60;;;22.10;88.30;;;;;;5107819;28;20036;-86
2021/08/14 00:28:51;;;;;;;2.90;2.13;;;22.10;88.20;;;;;;5109688;28;20458;-87
2021/08/14 00:31:18;;;;;;;3.78;2.50;;;22.10;88.50;;;;;;5101970;28;20039;-86
2021/08/14 00:33:43;;;;;;;3.97;2.28;;;22.00;88.40;;;;;;5100042;28;20039;-87
2021/08/14 00:36:09;;;;;;;4.82;2.65;;;22.00;88.40;;;;;;5106846;28;20123;-87
2021/08/14 00:38:34;;;;;;;3.60;2.42;;;22.00;88.30;;;;;;5114779;28;20048;-86
2021/08/14 00:41:00;;;;;;;3.60;2.28;;;21.90;88.70;;;;;;5122247;28;20040;-86
2021/08/14 00:43:26;;;;;;;3.15;2.30;;;21.90;88.40;;;;;;5104201;28;20039;-86
2021/08/14 00:45:52;;;;;;;3.03;2.10;;;21.80;88.80;;;;;;5105148;28;20047;-85
2021/08/14 00:48:17;;;;;;;5.55;2.95;;;21.70;88.70;;;;;;5107974;28;20062;-86
2021/08/14 00:50:43;;;;;;;2.95;2.08;;;21.80;88.40;;;;;;5104524;28;20042;-85
2021/08/14 00:53:08;;;;;;;4.38;2.90;;;21.70;88.20;;;;;;5109170;28;20047;-86
2021/08/14 00:55:34;;;;;;;3.97;2.72;;;21.70;88.40;;;;;;5110238;28;20058;-85
2021/08/14 00:58:00;;;;;;;3.22;2.25;;;21.60;88.30;;;;;;5106100;28;20366;-87
2021/08/14 01:00:25;;;;;;;3.63;2.55;;;21.60;88.70;;;;;;5102456;28;20047;-86
2021/08/14 01:02:55;;;;;;;3.35;2.30;;;21.50;88.70;;;;;;5101306;28;20036;-86
2021/08/14 01:05:21;;;;;;;4.07;2.78;;;21.50;89.00;;;;;;5104102;28;20425;-86
2021/08/14 01:07:48;;;;;;;3.92;2.38;;;21.40;89.10;;;;;;5105627;28;20058;-86
2021/08/14 01:10:13;;;;;;;3.80;2.60;;;21.40;89.10;;;;;;5108594;28;20031;-86
2021/08/14 01:12:40;;;;;;;4.57;2.58;;;21.40;89.20;;;;;;5097172;28;20097;-85
2021/08/14 01:15:06;;;;;;;3.50;2.30;;;21.40;89.20;;;;;;5110075;28;20031;-87
2021/08/14 01:17:35;;;;;;;4.97;2.47;;;21.40;89.50;;;;;;5111058;28;20042;-86
2021/08/14 01:20:00;;;;;;;4.47;2.78;;;21.30;89.50;;;;;;5106217;28;20066;-86
2021/08/14 01:22:25;;;;;;;3.65;2.80;;;21.30;89.60;;;;;;5096177;28;20109;-87
2021/08/14 01:24:51;;;;;;;3.67;2.58;;;21.20;89.60;;;;;;5106305;28;20495;-87
2021/08/14 01:27:17;;;;;;;6.70;3.30;;;21.20;89.70;;;;;;5109563;28;20044;-86
2021/08/14 01:29:42;;;;;;;5.60;3.33;;;21.10;90.00;;;;;;5109580;28;20067;-85
2021/08/14 01:32:09;;;;;;;5.07;2.83;;;21.10;90.00;;;;;;5109446;28;20035;-86
2021/08/14 01:34:41;;;;;;;3.10;1.98;;;21.10;90.00;;;;;;5092550;28;20357;-86
2021/08/14 01:37:08;;;;;;;3.72;2.75;;;21.00;90.20;;;;;;5104981;28;20054;-85
2021/08/14 01:39:33;;;;;;;7.57;3.40;;;21.00;90.10;;;;;;5113175;28;20047;-86
2021/08/14 01:42:02;;;;;;;4.10;3.10;;;20.90;90.10;;;;;;5115464;28;20047;-86
2021/08/14 01:44:29;;;;;;;4.47;2.55;;;20.90;90.20;;;;;;5115710;28;20043;-85
2021/08/14 01:46:54;;;;;;;7.60;2.95;;;20.80;90.20;;;;;;5105637;28;20101;-85
2021/08/14 01:49:20;;;;;;;5.10;2.67;;;20.80;90.30;;;;;;5101642;28;20040;-85
2021/08/14 01:51:46;;;;;;;3.90;2.47;;;20.70;90.50;;;;;;5110439;28;20123;-86
2021/08/14 01:54:13;;;;;;;3.28;2.42;;;20.70;90.50;;;;;;5103420;28;20151;-85
2021/08/14 01:56:39;;;;;;;4.00;2.60;;;20.70;90.50;;;;;;5102921;28;20039;-86
2021/08/14 01:59:05;;;;;;;4.68;3.10;;;20.70;90.60;;;;;;5113727;28;20342;-86
2021/08/14 02:01:31;;;;;;;6.78;3.03;;;20.70;90.60;;;;;;5109324;28;20032;-86
2021/08/14 02:03:57;;;;;;;5.07;3.33;;;20.70;90.70;;;;;;5110225;28;20308;-86
2021/08/14 02:06:25;;;;;;;5.18;3.20;;;20.60;90.80;;;;;;5107933;28;20028;-86
2021/08/14 02:08:51;;;;;;;8.13;3.28;;;20.60;90.80;;;;;;5107538;28;20043;-86
2021/08/14 02:11:23;;;;;;;6.95;3.25;;;20.60;90.90;;;;;;5100974;28;20091;-86
2021/08/14 02:13:50;;;;;;;4.75;3.03;;;20.50;91.00;;;;;;5108122;28;20039;-85
2021/08/14 02:16:17;;;;;;;6.13;2.90;;;20.50;91.10;;;;;;5091996;28;20101;-86
2021/08/14 02:18:42;;;;;;;3.78;2.75;;;20.40;91.20;;;;;;5097485;28;20040;-86
2021/08/14 02:21:08;;;;;;;5.07;3.35;;;20.40;91.30;;;;;;5110439;27;20078;-86
2021/08/14 02:23:35;;;;;;;7.00;2.97;;;20.40;91.40;;;;;;5115886;28;20063;-86
2021/08/14 02:26:00;;;;;;;6.50;3.78;;;20.30;91.40;;;;;;5117467;28;20027;-86
2021/08/14 02:28:27;;;;;;;5.30;2.70;;;20.30;91.60;;;;;;5112537;28;20036;-84
2021/08/14 02:30:53;;;;;;;4.93;3.17;;;20.20;91.70;;;;;;5116492;28;20385;-86
2021/08/14 02:33:19;;;;;;;7.18;3.30;;;20.20;91.90;;;;;;5109681;28;20067;-86
2021/08/14 02:35:44;;;;;;;5.55;2.75;;;20.10;92.00;;;;;;5102809;28;20047;-86
2021/08/14 02:38:10;;;;;;;4.90;3.05;;;20.10;92.10;;;;;;5116388;28;20047;-86
2021/08/14 02:40:36;;;;;;;6.63;3.47;;;20.00;92.20;;;;;;5105671;28;20364;-86
2021/08/14 02:43:03;;;;;;;6.93;3.55;;;20.00;92.20;;;;;;5109577;28;20110;-86
2021/08/14 02:45:28;;;;;;;4.97;3.38;;;20.00;92.30;;;;;;5099582;28;20067;-88
2021/08/14 02:47:56;;;;;;;4.40;3.50;;;19.90;92.10;;;;;;5101996;28;20036;-87
2021/08/14 02:50:22;;;;;;;6.50;3.58;;;19.90;92.20;;;;;;5107100;28;20309;-85
2021/08/14 02:52:48;;;;;;;3.88;2.75;;;19.80;92.20;;;;;;5121147;28;20046;-86
2021/08/14 02:55:13;;;;;;;7.22;3.83;;;19.80;92.20;;;;;;5112956;28;20036;-85
2021/08/14 02:57:39;;;;;;;7.82;3.78;;;19.80;92.10;;;;;;5112689;28;20040;-85
2021/08/14 03:00:05;;;;;;;5.05;3.78;;;19.80;92.10;;;;;;5102665;28;20064;-84
2021/08/14 03:02:30;;;;;;;5.78;3.60;;;19.70;92.10;;;;;;5100368;28;20036;-84
2021/08/14 03:04:56;;;;;;;5.78;3.42;;;19.70;92.20;;;;;;5107236;28;20105;-85
2021/08/14 03:07:21;;;;;;;7.97;3.70;;;19.70;92.40;;;;;;5113672;28;20062;-84
2021/08/14 03:09:47;;;;;;;4.63;2.80;;;19.70;92.40;;;;;;5111608;28;20044;-85
2021/08/14 03:12:12;;;;;;;8.38;3.85;;;19.70;92.40;;;;;;5114316;28;20055;-85
2021/08/14 03:14:38;;;;;;;7.15;2.88;;;19.60;92.50;;;;;;5104803;28;20032;-84
2021/08/14 03:17:05;;;;;;;6.78;4.07;;;19.60;92.80;;;;;;5113890;28;20039;-85
2021/08/14 03:19:31;;;;;;;6.05;3.35;;;19.50;92.80;;;;;;5105787;28;20039;-85
2021/08/14 03:21:56;;;;;;;4.90;3.35;;;19.50;92.80;;;;;;5099413;28;20046;-85
2021/08/14 03:24:23;;;;;;;6.88;3.35;;;19.50;92.90;;;;;;5109126;28;20515;-85
2021/08/14 03:26:49;;;;;;;4.68;3.22;;;19.40;93.00;;;;;;5123315;28;20032;-85
2021/08/14 03:29:14;;;;;;;6.10;3.28;;;19.40;93.10;;;;;;5110377;28;20416;-85
2021/08/14 03:31:39;;;;;;;5.53;3.20;;;19.30;93.20;;;;;;5110129;28;20122;-85
2021/08/14 03:34:05;;;;;;;4.45;3.10;;;19.30;93.30;;;;;;5111718;28;20363;-84
2021/08/14 03:36:30;;;;;;;4.85;3.42;;;19.30;93.40;;;;;;5113066;28;20050;-85
2021/08/14 03:38:56;;;;;;;5.47;3.55;;;19.20;93.50;;;;;;5105153;28;20109;-84
2021/08/14 03:41:21;;;;;;;5.25;3.25;;;19.20;93.50;;;;;;5105651;28;20692;-84
2021/08/14 03:43:47;;;;;;;5.90;3.58;;;19.10;93.60;;;;;;5099431;28;20064;-85
2021/08/14 03:46:12;;;;;;;6.45;3.65;;;19.10;93.60;;;;;;5097994;28;20035;-84
2021/08/14 03:48:38;;;;;;;8.80;3.72;;;19.00;93.60;;;;;;5106835;28;20437;-85
2021/08/14 03:51:03;;;;;;;6.00;3.50;;;19.00;93.70;;;;;;5106365;28;20039;-86
2021/08/14 03:53:30;;;;;;;5.97;3.67;;;19.00;93.80;;;;;;5101245;28;20130;-86
2021/08/14 03:55:55;;;;;;;6.10;4.10;;;18.90;93.80;;;;;;5112014;28;20665;-85
2021/08/14 03:58:20;;;;;;;7.35;3.58;;;18.90;93.90;;;;;;5106347;28;20031;-85
2021/08/14 04:00:46;;;;;;;7.43;3.60;;;18.90;94.00;;;;;;5114165;28;20265;-85
2021/08/14 04:03:11;;;;;;;4.72;3.72;;;18.90;94.00;;;;;;5110180;28;20365;-84
2021/08/14 04:05:37;;;;;;;5.72;3.53;;;18.80;94.00;;;;;;5086352;28;20105;-85
2021/08/14 04:08:03;;;;;;;5.85;3.22;;;18.80;94.10;;;;;;5087879;28;20111;-84
2021/08/14 04:10:28;;;;;;;5.93;3.28;;;18.70;94.20;;;;;;5104190;28;20044;-84
2021/08/14 04:12:53;;;;;;;10.90;3.80;;;18.70;94.30;;;;;;5101074;28;20052;-85
2021/08/14 04:15:19;;;;;;;4.85;3.65;;;18.70;94.30;;;;;;5099629;28;20055;-86
2021/08/14 04:17:44;;;;;;;7.80;3.90;;;18.70;94.30;;;;;;5103322;28;20040;-85
2021/08/14 04:20:10;;;;;;;5.38;3.72;;;18.70;94.40;;;;;;5102499;28;20040;-85
2021/08/14 04:22:36;;;;;;;7.47;3.97;;;18.70;94.50;;;;;;5105167;28;20205;-85
2021/08/14 04:25:03;;;;;;;8.02;4.07;;;18.60;94.40;;;;;;5097656;28;20044;-86
2021/08/14 04:27:28;;;;;;;7.22;4.57;;;18.60;94.50;;;;;;5106962;28;20043;-86
2021/08/14 04:29:54;;;;;;;9.38;4.18;;;18.50;94.50;;;;;;5105668;28;20330;-85
2021/08/14 04:32:20;;;;;;;6.82;4.32;;;18.50;94.60;;;;;;5106139;28;20370;-85
2021/08/14 04:34:45;;;;;;;4.25;3.03;;;18.50;94.70;;;;;;5106280;28;20040;-85
2021/08/14 04:37:13;;;;;;;5.50;3.88;;;18.50;94.70;;;;;;5100288;28;20043;-85
2021/08/14 04:39:38;;;;;;;7.30;3.83;;;18.50;94.60;;;;;;5106055;28;20035;-85
2021/08/14 04:42:04;;;;;;;7.30;3.63;;;18.50;94.60;;;;;;5108691;28;20031;-86
2021/08/14 04:44:30;;;;;;;8.45;4.60;;;18.50;94.60;;;;;;5101922;28;20032;-85
2021/08/14 04:46:55;;;;;;;5.55;3.75;;;18.50;94.50;;;;;;5107882;28;20036;-85
2021/08/14 04:49:21;;;;;;;7.65;4.00;;;18.60;94.50;;;;;;5100862;28;20150;-86
2021/08/14 04:51:46;;;;;;;7.75;4.15;;;18.60;94.60;;;;;;5102646;28;20043;-86
2021/08/14 04:54:12;;;;;;;7.00;4.43;;;18.60;94.60;;;;;;5106838;28;20051;-86
2021/08/14 04:56:37;;;;;;;4.68;3.55;;;18.60;94.60;;;;;;5103929;28;20393;-84
2021/08/14 04:59:03;;;;;;;6.47;3.78;;;18.50;94.50;;;;;;5104710;28;20052;-85
2021/08/14 05:01:28;;;;;;;7.95;3.83;;;18.60;94.60;;;;;;5105019;28;20062;-85
2021/08/14 05:03:54;;;;;;;5.38;3.33;;;18.60;94.60;;;;;;5106015;28;20035;-86
2021/08/14 05:06:19;;;;;;;7.80;4.75;;;18.60;94.50;;;;;;5118043;28;20028;-85
2021/08/14 05:08:44;;;;;;;7.07;4.20;;;18.60;94.50;;;;;;5123740;28;20031;-85
2021/08/14 05:11:10;;;;;;;9.18;4.13;;;18.70;94.50;;;;;;5107616;28;20329;-86
2021/08/14 05:13:36;;;;;;;6.47;4.10;;;18.70;94.40;;;;;;5098950;28;20067;-85
2021/08/14 05:16:01;;;;;;;5.85;3.08;;;18.70;94.40;;;;;;5097273;28;20714;-85
2021/08/14 05:18:27;;;;;;;6.78;3.78;;;18.70;94.40;;;;;;5095372;28;20044;-85
2021/08/14 05:20:53;;;;;;;6.35;4.00;;;18.80;94.40;;;;;;5086701;28;20064;-85
2021/08/14 05:23:19;;;;;;;8.80;4.82;;;18.80;94.30;;;;;;5100676;28;20410;-86
2021/08/14 05:25:44;;;;;;;6.00;3.80;;;18.80;94.10;;;;;;5087259;28;20123;-87
2021/08/14 05:28:10;;;;;;;10.98;4.32;;;18.90;94.10;;;;;;5092259;28;20040;-87
2021/08/14 05:30:35;;;;;;;8.95;3.28;;;19.00;94.10;;;;;;5096414;28;20391;-87
2021/08/14 05:33:01;;;;;;;6.95;4.80;;;19.00;94.20;;;;;;5103118;28;20073;-86
2021/08/14 05:35:28;;;;;;;9.15;4.25;;;19.00;94.00;;;;;;5105556;28;20432;-86
2021/08/14 05:37:54;;;;;;;10.18;4.22;;;19.10;93.90;;;;;;5107694;28;20038;-86
2021/08/14 05:40:20;;;;;;;6.90;4.38;;;19.10;93.80;;;;;;5103341;28;20067;-87
2021/08/14 05:42:45;;;;;;;6.72;4.50;;;19.20;93.90;;;;;;5105232;28;20063;-87
2021/08/14 05:45:11;;;;;;;7.82;4.05;;;19.20;93.80;;;;;;5090753;28;20032;-87
2021/08/14 05:47:36;;;;;;;7.60;4.00;;;19.30;93.70;;;;;;5079025;28;20071;-86
2021/08/14 05:50:03;;;;;;;7.15;4.30;;;19.30;93.80;;;;;;5079197;28;20040;-87
2021/08/14 05:52:28;;;;;;;9.13;4.57;;;19.40;93.50;;;;;;5083314;28;20406;-87
2021/08/14 05:54:54;;;;;;;5.80;4.15;;;19.40;93.40;;;;;;5078588;28;20051;-87
2021/08/14 05:57:20;;;;;;;9.70;5.22;;;19.50;93.50;;;;;;5097572;28;20612;-87
2021/08/14 05:59:46;;;;;;;6.32;3.97;;;19.50;93.50;;;;;;5102635;28;20109;-87
2021/08/14 06:02:11;;;;;;;6.72;3.72;;;19.60;93.40;;;;;;5104887;28;20040;-87
2021/08/14 06:04:37;;;;;;;5.25;3.72;;;19.70;93.20;;;;;;5094478;28;20051;-87
2021/08/14 06:07:02;;;;;;;9.50;3.63;;;19.70;93.20;;;;;;5083007;28;20431;-87
2021/08/14 06:09:28;;;;;;;6.88;3.92;;;19.80;93.30;;;;;;5075286;28;20137;-87
2021/08/14 06:11:54;;;;;;;5.63;4.00;;;19.80;93.10;;;;;;5102699;28;20028;-87
2021/08/14 06:14:19;;;;;;;6.65;3.80;;;19.90;93.40;;;;;;5100613;28;20036;-87
2021/08/14 06:16:44;;;;;;;7.18;4.30;;;19.90;93.10;;;;;;5106595;28;20039;-87
2021/08/14 06:19:10;;;;;;;4.88;3.97;;;20.00;92.80;;;;;;5094156;28;20155;-87
2021/08/14 06:21:36;;;;;;;7.03;4.05;;;20.00;92.70;;;;;;5082891;28;20101;-87
2021/08/14 06:24:01;;;;;;;4.88;3.17;;;20.10;92.80;;;;;;5096841;28;20044;-87
2021/08/14 06:26:27;;;;;;;5.20;3.63;;;20.20;92.70;;;;;;5106926;28;20049;-87
2021/08/14 06:28:52;;;;;;;6.22;3.95;;;20.20;91.80;;;;;;5092468;28;20050;-87
2021/08/14 06:31:18;;;;;;;6.25;4.45;;;20.30;91.60;;;;;;5102408;28;20036;-87
2021/08/14 06:33:44;;;;;;;7.45;3.75;;;20.30;91.30;;;;;;5106152;28;20039;-87
2021/08/14 06:36:09;;;;;;;8.30;3.47;;;20.40;91.30;;;;;;5098343;28;20031;-87
2021/08/14 06:38:38;;;;;;;6.38;3.55;;;20.50;91.10;;;;;;5100106;28;20109;-87
2021/08/14 06:41:03;;;;;;;7.05;3.47;;;20.60;91.30;;;;;;5099100;28;20077;-87
2021/08/14 06:43:29;;;;;;;5.40;3.15;;;20.60;91.20;;;;;;5097488;28;20044;-87
2021/08/14 06:45:55;;;;;;;6.50;2.75;;;20.70;90.70;;;;;;5112624;28;20042;-87
2021/08/14 06:48:20;;;;;;;9.10;3.47;;;20.80;90.10;;;;;;5099791;28;20047;-87
2021/08/14 06:50:46;;;;;;;6.38;3.40;;;20.80;88.90;;;;;;5093504;28;20371;-87
2021/08/14 06:53:12;;;;;;;6.10;3.72;;;20.90;90.00;;;;;;5106920;28;20041;-87
2021/08/14 06:55:37;;;;;;;5.13;2.92;;;20.90;90.00;;;;;;5099930;28;20401;-86
2021/08/14 06:58:03;;;;;;;7.32;3.28;;;21.00;90.10;;;;;;5099297;28;20402;-87
2021/08/14 07:00:29;;;;;;;7.25;3.35;;;21.10;89.40;;;;;;5102466;28;20032;-87
2021/08/14 07:02:55;;;;;;;5.50;3.83;;;21.20;89.80;;;;;;5105576;28;20044;-87
2021/08/14 07:05:20;;;;;;;6.97;3.28;;;21.30;90.00;;;;;;5109228;28;20136;-88
2021/08/14 07:07:46;;;;;;;5.47;3.83;;;21.30;89.60;;;;;;5103458;28;20027;-88
2021/08/14 07:10:12;;;;;;;7.25;3.58;;;21.30;89.50;;;;;;5106578;28;20040;-87
2021/08/14 07:12:37;;;;;;;5.28;3.95;;;21.40;90.00;;;;;;5110460;28;20047;-88
2021/08/14 07:15:05;;;;;;;6.97;3.60;;;21.50;89.20;;;;;;5103758;28;20050;-87
2021/08/14 07:17:32;;;;;;;5.43;3.88;;;21.60;88.50;;;;;;5107913;28;20036;-87
2021/08/14 07:19:57;;;;;;;7.13;4.47;;;21.60;88.00;;;;;;5101996;28;20040;-88
2021/08/14 07:22:23;;;;;;;5.60;3.72;;;21.70;88.60;;;;;;5103271;28;20046;-88
2021/08/14 07:24:48;;;;;;;7.40;4.38;;;21.70;88.30;;;;;;5103340;28;20066;-87
2021/08/14 07:27:14;;;;;;;7.53;3.45;;;21.80;89.10;;;;;;5098623;28;20054;-85
2021/08/14 07:29:39;;;;;;;5.80;3.35;;;21.90;88.50;;;;;;5126509;28;20052;-87
2021/08/14 07:32:05;;;;;;;8.35;4.00;;;22.00;89.30;;;;;;5098984;28;20036;-87
2021/08/14 07:34:31;;;;;;;5.35;3.97;;;22.10;88.40;;;;;;5098956;28;20051;-88
2021/08/14 07:36:57;;;;;;;5.80;3.67;;;22.20;87.60;;;;;;5101987;28;20392;-86
2021/08/14 07:39:23;;;;;;;6.80;4.40;;;22.30;87.90;;;;;;5108679;28;20122;-85
2021/08/14 07:41:48;;;;;;;5.68;3.75;;;22.40;86.60;;;;;;5103768;28;20114;-85
2021/08/14 07:44:13;;;;;;;7.13;3.40;;;22.50;87.20;;;;;;5107121;28;20040;-86
2021/08/14 07:46:39;;;;;;;7.10;3.67;;;22.70;87.30;;;;;;5096462;28;20036;-86
2021/08/14 07:49:04;;;;;;;6.65;4.03;;;22.80;85.80;;;;;;5096306;28;20386;-86
2021/08/14 07:51:30;;;;;;;6.95;4.03;;;22.90;85.50;;;;;;5097055;28;20416;-86
2021/08/14 07:53:55;;;;;;;6.65;3.65;;;23.00;85.00;;;;;;5097304;28;20051;-85
2021/08/14 07:56:22;;;;;;;5.07;3.33;;;23.10;85.00;;;;;;5097951;28;20187;-85
2021/08/14 07:58:47;;;;;;;8.85;3.42;;;23.20;84.50;;;;;;5096932;28;20164;-86
2021/08/14 08:01:13;;;;;;;5.40;3.20;;;23.40;83.00;;;;;;5097049;28;20085;-86
2021/08/14 08:03:38;;;;;;;6.28;3.70;;;23.50;82.50;;;;;;5096716;28;20047;-86
2021/08/14 08:06:04;;;;;;;5.13;3.17;;;23.60;82.50;;;;;;5097433;28;20071;-87
2021/08/14 08:08:29;;;;;;;9.05;3.95;;;23.70;81.90;;;;;;5097825;28;20036;-87
2021/08/14 08:10:54;;;;;;;6.20;3.70;;;23.80;81.80;;;;;;5096824;28;20044;-87
2021/08/14 08:13:20;;;;;;;4.95;3.15;;;23.90;81.60;;;;;;5097402;28;20062;-87
2021/08/14 08:15:46;;;;;;;9.18;3.25;;;24.00;80.10;;;;;;5096726;28;20043;-87
2021/08/14 08:18:14;;;;;;;5.97;3.03;;;24.00;81.30;;;;;;5096799;28;20032;-87
2021/08/14 08:20:40;;;;;;;6.72;2.85;;;24.10;80.60;;;;;;5097058;28;20050;-87
2021/08/14 08:23:05;;;;;;;7.03;4.22;;;24.20;79.10;;;;;;5097493;28;20106;-87
2021/08/14 08:25:31;;;;;;;6.57;3.10;;;24.30;78.10;;;;;;5096695;28;20040;-87
2021/08/14 08:28:01;;;;;;;5.22;2.47;;;24.40;78.30;;;;;;5096296;28;20040;-87
2021/08/14 08:30:27;;;;;;;4.40;2.60;;;24.50;79.30;;;;;;5096946;28;20697;-87
2021/08/14 08:32:53;;;;;;;3.63;2.58;;;24.60;76.60;;;;;;5104514;28;20016;-88
2021/08/14 08:35:19;;;;;;;3.90;1.88;;;24.70;76.30;;;;;;5108265;28;20469;-86
2021/08/14 08:37:44;;;;;;;4.45;2.55;;;24.80;74.40;;;;;;5098255;28;20069;-87
2021/08/14 08:40:10;;;;;;;4.75;2.13;;;24.90;72.40;;;;;;5097440;28;20113;-86
2021/08/14 08:42:36;;;;;;;4.40;2.40;;;24.90;72.30;;;;;;5096478;28;20028;-87
2021/08/14 08:45:02;;;;;;;4.10;2.17;;;25.00;72.90;;;;;;5102463;28;20047;-87
2021/08/14 08:47:30;;;;;;;4.30;2.05;;;25.10;71.80;;;;;;5097259;28;20036;-86
2021/08/14 08:49:57;;;;;;;5.50;2.80;;;25.20;72.50;;;;;;5095843;28;20047;-87
2021/08/14 08:52:24;;;;;;;3.72;1.92;;;25.20;71.50;;;;;;5096857;28;20047;-87
2021/08/14 08:54:51;;;;;;;3.83;1.95;;;25.20;72.80;;;;;;5096168;28;20047;-87
2021/08/14 08:57:17;;;;;;;4.10;2.33;;;25.20;72.60;;;;;;5096368;28;20043;-87
2021/08/14 08:59:45;;;;;;;4.05;2.17;;;25.20;73.20;;;;;;5097413;28;20040;-87
2021/08/14 09:02:25;;;;;;;4.45;2.55;;;25.30;74.30;;;;;;5095720;28;20097;-88
2021/08/14 09:05:14;;;;;;;6.00;2.80;;;25.40;72.50;;;;;;5095818;28;20415;-87
2021/08/14 09:07:41;;;;;;;4.38;2.15;;;25.50;72.40;;;;;;5096408;28;20040;-87
2021/08/14 09:10:10;;;;;;;4.28;2.33;;;25.60;73.10;;;;;;5108237;28;20024;-88
2021/08/14 09:12:43;;;;;;;4.57;2.33;;;25.70;74.30;;;;;;5103498;28;20040;-87
2021/08/14 09:15:19;;;;;;;4.47;2.25;;;25.80;72.30;;;;;;5096114;28;20398;-87
2021/08/14 09:17:48;;;;;;;4.20;2.60;;;25.90;73.10;;;;;;5095346;28;20073;-87
2021/08/14 09:20:19;;;;;;;3.58;2.17;;;26.00;72.90;;;;;;5096007;28;20435;-88
2021/08/14 09:23:05;;;;;;;8.93;3.13;;;26.10;72.70;;;;;;5095865;28;20389;-87
2021/08/14 09:25:40;;;;;;;4.63;2.50;;;26.20;72.00;;;;;;5096201;28;20028;-88
2021/08/14 09:28:06;;;;;;;3.25;1.98;;;26.30;72.40;;;;;;5097155;28;20028;-87
2021/08/14 09:30:45;;;;;;;2.97;2.30;;;26.30;71.70;;;;;;5100481;28;20259;-87
2021/08/14 09:33:13;;;;;;;4.60;2.38;;;26.40;70.80;;;;;;5117739;28;20012;-86
2021/08/14 09:35:43;;;;;;;3.30;2.10;;;26.40;71.00;;;;;;5115310;28;20050;-86
2021/08/14 09:38:12;;;;;;;3.72;2.50;;;26.50;71.30;;;;;;5099032;28;20129;-88
2021/08/14 09:40:40;;;;;;;3.75;2.50;;;26.50;72.60;;;;;;5097505;28;20056;-87
2021/08/14 09:43:07;;;;;;;2.83;2.17;;;26.50;73.00;;;;;;5097643;28;20044;-88
2021/08/14 09:45:32;;;;;;;2.97;2.08;;;26.60;71.50;;;;;;5107873;28;20024;-87
2021/08/14 09:48:16;;;;;;;3.47;1.83;;;26.70;73.10;;;;;;5102255;28;20063;-87
2021/08/14 09:50:42;;;;;;;3.92;2.40;;;26.80;71.60;;;;;;5096093;28;20040;-87
2021/08/14 09:53:13;;;;;;;3.10;2.55;;;26.90;72.50;;;;;;5085166;28;20465;-87
2021/08/14 09:55:39;;;;;;;3.70;2.20;;;26.90;70.90;;;;;;5076552;28;20051;-88
2021/08/14 09:58:09;;;;;;;3.65;1.77;;;27.00;70.30;;;;;;5080234;28;20040;-87
2021/08/14 10:00:35;;;;;;;5.50;2.50;;;27.00;72.30;;;;;;5079961;28;20043;-89
2021/08/14 10:03:02;;;;;;;3.90;2.30;;;27.10;69.80;;;;;;5079463;28;20410;-86
2021/08/14 10:05:32;;;;;;;3.10;2.03;;;27.10;69.60;;;;;;5095096;28;20062;-87
2021/08/14 10:08:00;;;;;;;2.83;2.17;;;27.20;71.00;;;;;;5098589;28;20032;-86
2021/08/14 10:10:26;;;;;;;5.05;2.70;;;27.20;70.30;;;;;;5100457;28;20051;-87
2021/08/14 10:12:52;;;;;;;6.28;2.10;;;27.20;69.80;;;;;;5099610;28;20027;-86
2021/08/14 10:15:18;;;;;;;3.03;1.98;;;27.20;69.20;;;;;;5099422;28;20100;-86
2021/08/14 10:17:44;;;;;;;3.33;1.88;;;27.30;69.90;;;;;;5099335;28;20139;-87
2021/08/14 10:20:10;;;;;;;3.53;2.28;;;27.40;70.10;;;;;;5099843;28;20040;-87
2021/08/14 10:22:35;;;;;;;5.00;2.03;;;27.50;68.20;;;;;;5109734;28;20046;-87
2021/08/14 10:25:01;;;;;;;3.08;1.85;;;27.60;69.70;;;;;;5106282;28;20059;-87
2021/08/14 10:27:26;;;;;;;3.97;1.70;;;27.70;70.40;;;;;;5100034;28;20074;-88
2021/08/14 10:29:54;;;;;;;3.17;2.22;;;27.90;67.90;;;;;;5099386;28;20044;-86
2021/08/14 10:32:35;;;;;;;3.38;2.05;;;28.00;66.80;;;;;;5099169;28;20389;-86
2021/08/14 10:35:12;;;;;;;3.92;2.15;;;28.00;66.10;;;;;;5098715;28;20048;-86
2021/08/14 10:37:42;;;;;;;2.50;1.80;;;28.10;64.20;;;;;;5104196;28;20032;-87
2021/08/14 10:40:09;;;;;;;5.07;2.00;;;28.20;65.30;;;;;;5108972;28;20310;-86
2021/08/14 10:42:49;;;;;;;3.83;1.95;;;28.30;64.90;;;;;;5099431;28;20078;-87
2021/08/14 10:45:19;;;;;;;2.95;1.70;;;28.30;67.60;;;;;;5098995;28;20057;-88
2021/08/14 10:47:46;;;;;;;5.68;2.13;;;28.40;66.40;;;;;;5104515;28;20062;-87
2021/08/14 10:50:30;;;;;;;4.40;2.17;;;28.50;65.50;;;;;;5108402;28;20040;-86
2021/08/14 10:53:19;;;;;;;3.63;2.20;;;28.60;65.20;;;;;;5100873;28;20040;-86
2021/08/14 10:55:46;;;;;;;3.03;2.25;;;28.70;64.50;;;;;;5099159;28;20043;-86
2021/08/14 10:58:42;;;;;;;2.55;1.70;;;28.90;64.80;;;;;;5097959;28;20135;-85
2021/08/14 11:01:11;;;;;;;3.65;2.25;;;29.00;63.00;;;;;;5094065;28;20044;-87
2021/08/14 11:03:37;;;;;;;4.45;1.98;;;29.00;62.00;;;;;;5098592;28;20255;-87
2021/08/14 11:06:27;;;;;;;4.07;2.22;;;29.00;63.60;;;;;;5098147;28;20047;-86
2021/08/14 11:09:17;;;;;;;3.42;1.73;;;29.00;64.30;;;;;;5097071;28;20089;-86
2021/08/14 11:12:03;;;;;;;2.97;1.90;;;29.10;62.50;;;;;;5097860;28;20051;-86
2021/08/14 11:14:43;;;;;;;3.33;1.70;;;29.10;62.50;;;;;;5098008;28;20036;-85
2021/08/14 11:17:13;;;;;;;3.55;2.20;;;29.20;61.90;;;;;;5098650;28;20060;-85
2021/08/14 11:19:44;;;;;;;2.58;1.90;;;29.20;62.60;;;;;;5098813;28;20039;-85
2021/08/14 11:22:28;;;;;;;5.53;2.50;;;29.30;62.90;;;;;;5099005;28;20126;-85
2021/08/14 11:24:55;;;;;;;3.25;1.60;;;29.40;60.60;;;;;;5109733;28;20266;-87
2021/08/14 11:27:24;;;;;;;3.38;1.92;;;29.40;62.50;;;;;;5105312;28;20040;-86
2021/08/14 11:30:05;;;;;;;3.17;1.80;;;29.40;57.80;;;;;;5098575;28;20039;-86
2021/08/14 11:32:31;;;;;;;3.00;2.15;;;29.40;58.20;;;;;;5097223;28;20036;-87
2021/08/14 11:34:58;;;;;;;3.30;1.90;;;29.50;58.90;;;;;;5096826;28;20043;-86
2021/08/14 11:37:24;;;;;;;3.63;1.90;;;29.60;60.00;;;;;;5097495;28;20762;-86
2021/08/14 11:40:02;;;;;;;3.60;1.48;;;29.70;59.50;;;;;;5097774;28;20286;-86
2021/08/14 11:42:32;;;;;;;2.58;1.85;;;29.80;59.50;;;;;;5098051;28;20031;-86
2021/08/14 11:44:59;;;;;;;2.53;1.83;;;29.70;58.10;;;;;;5097239;28;20147;-87
2021/08/14 11:47:36;;;;;;;3.45;1.55;;;29.80;57.00;;;;;;5097297;28;20032;-86
2021/08/14 11:50:07;;;;;;;4.30;2.15;;;29.80;57.40;;;;;;5097519;28;20313;-85
2021/08/14 11:52:33;;;;;;;4.15;2.00;;;29.90;57.60;;;;;;5097046;28;20433;-87
2021/08/14 11:55:08;;;;;;;2.92;1.90;;;30.00;56.60;;;;;;5097112;28;20112;-87
2021/08/14 11:57:37;;;;;;;3.75;2.28;;;30.00;57.60;;;;;;5097659;28;20093;-86
2021/08/14 12:00:17;;;;;;;3.03;1.83;;;30.10;55.90;;;;;;5098538;28;20119;-87
2021/08/14 12:02:47;;;;;;;4.00;2.00;;;30.20;55.80;;;;;;5096972;28;20032;-86
2021/08/14 12:05:12;;;;;;;2.63;1.70;;;30.20;56.50;;;;;;5096707;28;20036;-87
2021/08/14 12:07:38;;;;;;;2.67;1.90;;;30.10;56.40;;;;;;5097020;28;20050;-87
2021/08/14 12:10:04;;;;;;;3.15;1.80;;;30.10;57.60;;;;;;5097058;28;20073;-87
2021/08/14 12:12:30;;;;;;;4.43;1.65;;;30.10;56.90;;;;;;5096703;28;20036;-88
2021/08/14 12:14:56;;;;;;;2.15;1.70;;;30.20;56.50;;;;;;5096611;28;20119;-87
2021/08/14 12:17:21;;;;;;;2.15;1.40;;;30.20;56.00;;;;;;5097465;28;20069;-86
2021/08/14 12:19:52;;;;;;;4.53;2.08;;;30.20;55.90;;;;;;5096351;28;20342;-86
2021/08/14 12:22:19;;;;;;;2.92;1.83;;;30.30;57.30;;;;;;5096329;28;20129;-87
2021/08/14 12:24:46;;;;;;;2.33;1.85;;;30.50;56.20;;;;;;5097621;28;20340;-86
2021/08/14 12:27:41;;;;;;;3.40;1.60;;;30.60;56.30;;;;;;5097178;28;20271;-86
2021/08/14 12:30:20;;;;;;;4.05;1.95;;;30.80;53.90;;;;;;5084105;28;20048;-87
2021/08/14 12:32:47;;;;;;;2.13;1.60;;;30.80;54.60;;;;;;5095920;28;20402;-86
2021/08/14 12:35:18;;;;;;;2.97;1.80;;;31.00;57.30;;;;;;5096995;28;20040;-87
2021/08/14 12:37:44;;;;;;;2.20;1.67;;;31.10;54.40;;;;;;5096383;28;20035;-85
2021/08/14 12:40:11;;;;;;;2.35;1.77;;;31.10;53.60;;;;;;5097035;28;20070;-86
2021/08/14 12:42:37;;;;;;;3.40;2.00;;;31.10;53.20;;;;;;5097278;28;20408;-87
2021/08/14 12:45:19;;;;;;;4.30;1.98;;;31.20;55.20;;;;;;5096268;28;20042;-87
2021/08/14 12:47:46;;;;;;;4.05;2.10;;;31.20;54.20;;;;;;5107848;28;20038;-85